Time;durP1;ratioP1;P1;durP2;ratioP2;P2;SDS_P1;SDS_P2;PMS_P1;PMS_P2;Temp;Humidity;BMP_temperature;BMP_pressure;BME280_temperature;BME280_humidity;BME280_pressure;Samples;Min_cycle;Max_cycle;Signal;HPM_P1;HPM_P2
2023/06/04 00:01:39;;;;;;;12.43;5.90;;;;;;;13.29;58.86;102031.19;5093716;28;20067;-50
2023/06/04 00:04:04;;;;;;;15.70;6.30;;;;;;;13.28;59.30;102032.31;5093735;28;20051;-48
2023/06/04 00:06:30;;;;;;;13.85;5.88;;;;;;;13.26;59.42;102031.81;5093363;28;20024;-50
2023/06/04 00:08:55;;;;;;;12.68;5.80;;;;;;;13.25;59.83;102021.81;5093534;28;20032;-47
2023/06/04 00:11:20;;;;;;;17.23;6.20;;;;;;;13.24;59.83;102015.41;5093499;28;20028;-51
2023/06/04 00:13:46;;;;;;;11.23;5.65;;;;;;;13.20;59.77;102014.34;5093441;28;20048;-49
2023/06/04 00:16:11;;;;;;;10.05;5.70;;;;;;;13.14;60.80;102018.31;5093390;28;20032;-51
2023/06/04 00:18:36;;;;;;;14.75;6.05;;;;;;;13.15;60.39;102017.19;5091818;28;20055;-48
2023/06/04 00:21:02;;;;;;;10.52;5.72;;;;;;;13.19;60.22;102022.97;5093139;28;20463;-51
2023/06/04 00:23:27;;;;;;;11.93;5.78;;;;;;;13.18;60.36;102018.53;5093334;28;20136;-50
2023/06/04 00:25:52;;;;;;;11.90;5.80;;;;;;;13.11;60.87;102014.16;5092984;28;20480;-47
2023/06/04 00:28:18;;;;;;;14.70;5.63;;;;;;;13.10;61.12;102015.28;5093168;28;20107;-51
2023/06/04 00:30:43;;;;;;;14.07;5.60;;;;;;;13.04;61.11;102013.69;5093180;28;20032;-51
2023/06/04 00:33:08;;;;;;;10.95;5.60;;;;;;;13.03;61.16;102014.81;5093116;28;20024;-49
2023/06/04 00:35:33;;;;;;;15.73;5.53;;;;;;;12.99;61.68;102012.91;5092559;28;20364;-48
2023/06/04 00:37:59;;;;;;;13.07;6.07;;;;;;;12.99;61.76;102007.38;5093282;28;20080;-50
2023/06/04 00:40:24;;;;;;;11.85;5.50;;;;;;;13.01;61.74;102010.69;5091285;28;20024;-47
2023/06/04 00:42:50;;;;;;;12.52;5.50;;;;;;;12.98;62.12;102006.56;5090997;28;20020;-49
2023/06/04 00:45:18;;;;;;;11.63;5.53;;;;;;;12.94;62.48;102011.03;5092982;28;20369;-50
2023/06/04 00:47:45;;;;;;;10.13;5.57;;;;;;;12.84;63.19;102008.34;5093020;28;20541;-51
2023/06/04 00:50:10;;;;;;;12.82;5.50;;;;;;;12.80;62.90;102013.66;5092834;28;20096;-49
2023/06/04 00:52:36;;;;;;;12.20;5.80;;;;;;;12.77;62.89;102008.69;5092855;28;20020;-49
2023/06/04 00:55:02;;;;;;;13.20;5.90;;;;;;;12.69;64.10;102010.16;5092690;28;20020;-49
2023/06/04 00:57:27;;;;;;;11.00;5.50;;;;;;;12.69;63.79;102007.41;5092789;28;20030;-47
2023/06/04 00:59:52;;;;;;;13.07;5.97;;;;;;;12.64;64.32;102012.97;5092341;28;20027;-51
2023/06/04 01:02:24;;;;;;;14.25;6.40;;;;;;;12.60;64.55;102014.69;5092532;28;20043;-50
2023/06/04 01:05:02;;;;;;;12.13;5.90;;;;;;;12.50;64.64;102007.28;5092527;28;20020;-49
2023/06/04 01:07:29;;;;;;;12.07;5.63;;;;;;;12.48;64.95;102015.91;5092482;28;20480;-48
2023/06/04 01:09:55;;;;;;;13.45;5.50;;;;;;;12.43;65.61;102006.78;5092423;28;20055;-49
2023/06/04 01:12:20;;;;;;;15.07;5.30;;;;;;;12.41;65.71;102011.78;5092480;28;20063;-49
2023/06/04 01:14:45;;;;;;;14.73;5.63;;;;;;;12.37;65.74;102022.66;5092465;28;20027;-48
2023/06/04 01:17:37;;;;;;;11.18;5.35;;;;;;;12.36;65.75;102014.63;5092486;28;20028;-48
2023/06/04 01:20:36;;;;;;;14.43;5.43;;;;;;;12.31;65.38;102018.25;5092211;28;20039;-47
2023/06/04 01:23:36;;;;;;;12.15;5.60;;;;;;;12.29;65.91;102024.09;5092750;28;20040;-49
2023/06/04 01:26:03;;;;;;;9.15;5.13;;;;;;;12.21;66.83;102024.69;5092539;28;20027;-48
2023/06/04 01:28:30;;;;;;;11.68;5.60;;;;;;;12.14;66.72;102019.47;5092473;28;20024;-48
2023/06/04 01:30:56;;;;;;;11.00;5.30;;;;;;;12.14;66.91;102025.00;5092527;28;20039;-52
2023/06/04 01:33:22;;;;;;;10.70;5.32;;;;;;;12.10;66.86;102017.56;5092376;28;20020;-49
2023/06/04 01:35:48;;;;;;;10.75;5.40;;;;;;;12.07;67.13;102012.59;5092356;28;20353;-51
2023/06/04 01:38:14;;;;;;;12.80;5.50;;;;;;;12.00;67.67;102010.97;5089099;28;20040;-50
2023/06/04 01:40:40;;;;;;;11.90;5.55;;;;;;;11.94;68.33;102011.28;5092138;28;20020;-50
2023/06/04 01:43:06;;;;;;;11.30;5.45;;;;;;;11.95;68.24;102010.16;5092512;28;20037;-47
2023/06/04 01:45:31;;;;;;;12.98;5.68;;;;;;;11.91;68.26;102011.84;5092255;28;20387;-49
2023/06/04 01:47:57;;;;;;;13.95;5.60;;;;;;;11.87;68.63;102014.34;5092170;28;20028;-51
2023/06/04 01:50:23;;;;;;;14.20;5.75;;;;;;;11.82;68.38;102014.38;5092118;28;20391;-51
2023/06/04 01:52:48;;;;;;;11.95;5.75;;;;;;;11.80;68.38;102013.84;5092070;28;20089;-48
2023/06/04 01:55:16;;;;;;;11.35;5.40;;;;;;;11.78;68.32;102007.75;5092299;28;20032;-47
2023/06/04 01:57:43;;;;;;;14.82;5.72;;;;;;;11.74;68.90;102018.59;5092071;28;20024;-52
2023/06/04 02:00:10;;;;;;;12.40;5.45;;;;;;;11.69;69.03;102011.13;5091912;28;20027;-47
2023/06/04 02:02:36;;;;;;;15.07;5.45;;;;;;;11.66;69.23;102016.44;5092004;28;20032;-48
2023/06/04 02:05:07;;;;;;;12.27;5.22;;;;;;;11.63;68.92;102020.56;5091843;28;20035;-50
2023/06/04 02:07:38;;;;;;;10.63;5.28;;;;;;;11.61;69.05;102006.19;5092024;28;20388;-50
2023/06/04 02:10:11;;;;;;;11.82;5.10;;;;;;;11.63;69.02;102008.66;5091844;28;20491;-53
2023/06/04 02:12:38;;;;;;;13.00;5.50;;;;;;;11.61;69.02;102006.19;5091937;28;20028;-49
2023/06/04 02:15:05;;;;;;;11.02;5.45;;;;;;;11.60;68.87;102015.63;5091859;28;20028;-49
2023/06/04 02:17:32;;;;;;;11.25;5.50;;;;;;;11.56;69.35;102008.97;5091302;28;20031;-50
2023/06/04 02:19:58;;;;;;;13.02;5.80;;;;;;;11.53;69.34;102013.16;5091587;28;20035;-51
2023/06/04 02:22:24;;;;;;;13.20;5.82;;;;;;;11.50;69.25;102007.34;5091621;28;20051;-51
2023/06/04 02:24:50;;;;;;;12.68;5.60;;;;;;;11.43;70.02;102015.97;5091842;28;20548;-49
2023/06/04 02:27:15;;;;;;;11.50;5.72;;;;;;;11.41;69.56;102004.31;5091703;28;20028;-50
2023/06/04 02:29:41;;;;;;;12.95;5.50;;;;;;;11.42;69.48;102005.97;5091808;28;20024;-50
2023/06/04 02:32:08;;;;;;;10.13;5.25;;;;;;;11.40;70.11;102008.19;5092678;28;20081;-51
2023/06/04 02:34:36;;;;;;;12.60;5.50;;;;;;;11.34;70.28;102018.47;5093644;28;20081;-48
2023/06/04 02:37:02;;;;;;;9.82;5.40;;;;;;;11.32;69.90;102011.56;5095717;28;20072;-49
2023/06/04 02:39:28;;;;;;;11.80;5.70;;;;;;;11.23;70.78;102003.84;5095283;28;20105;-48
2023/06/04 02:41:53;;;;;;;9.80;5.55;;;;;;;11.18;71.46;102011.34;5095361;28;20090;-47
2023/06/04 02:44:19;;;;;;;13.13;5.97;;;;;;;11.10;71.53;102009.97;5095415;28;20039;-50
2023/06/04 02:46:44;;;;;;;12.55;5.70;;;;;;;11.10;71.44;102015.50;5095345;28;20016;-47
2023/06/04 02:49:13;;;;;;;13.10;5.50;;;;;;;11.07;71.59;102007.78;5095247;28;20396;-48
2023/06/04 02:51:39;;;;;;;13.15;6.10;;;;;;;11.04;71.84;102014.72;5095460;28;20035;-47
2023/06/04 02:54:04;;;;;;;14.15;5.57;;;;;;;10.98;71.88;102024.13;5095195;28;20434;-48
2023/06/04 02:56:30;;;;;;;13.32;5.72;;;;;;;10.93;72.21;102019.41;5095277;28;20028;-49
2023/06/04 02:58:56;;;;;;;14.98;5.72;;;;;;;10.91;72.22;102020.81;5095032;28;20028;-50
2023/06/04 03:01:25;;;;;;;10.50;5.50;;;;;;;10.89;72.15;102023.88;5094945;28;20028;-52
2023/06/04 03:03:52;;;;;;;10.23;5.80;;;;;;;10.82;72.59;102011.41;5095060;28;20052;-48
2023/06/04 03:06:20;;;;;;;11.00;5.90;;;;;;;10.77;72.91;102017.78;5094657;28;20043;-50
2023/06/04 03:08:45;;;;;;;12.13;5.80;;;;;;;10.76;72.86;102016.13;5094920;28;20028;-47
2023/06/04 03:11:11;;;;;;;10.55;5.90;;;;;;;10.73;72.85;102016.69;5094833;28;20035;-50
2023/06/04 03:13:38;;;;;;;11.60;5.45;;;;;;;10.73;72.91;102025.84;5094605;28;20024;-48
2023/06/04 03:16:03;;;;;;;14.05;5.75;;;;;;;10.68;73.06;102017.50;5094444;28;20103;-46
2023/06/04 03:18:29;;;;;;;12.23;5.82;;;;;;;10.66;73.19;102018.91;5094095;28;20127;-46
2023/06/04 03:20:55;;;;;;;12.50;5.90;;;;;;;10.66;72.88;102018.91;5094370;28;20134;-48
2023/06/04 03:23:21;;;;;;;11.18;5.72;;;;;;;10.63;72.76;102014.75;5094150;28;20016;-51
2023/06/04 03:25:47;;;;;;;9.38;5.38;;;;;;;10.59;73.09;102014.50;5094137;28;20046;-50
2023/06/04 03:28:13;;;;;;;12.27;5.65;;;;;;;10.59;73.11;102014.50;5094325;28;20032;-49
2023/06/04 03:30:39;;;;;;;12.85;5.55;;;;;;;10.59;72.88;102013.66;5090222;28;20039;-51
2023/06/04 03:33:05;;;;;;;12.57;6.60;;;;;;;10.57;73.40;102013.94;5093786;28;20482;-47
2023/06/04 03:35:30;;;;;;;14.85;6.30;;;;;;;10.53;73.62;102015.59;5092571;28;20056;-51
2023/06/04 03:37:55;;;;;;;13.07;6.20;;;;;;;10.52;73.17;102018.63;5093955;28;20106;-48
2023/06/04 03:40:20;;;;;;;12.32;5.85;;;;;;;10.52;73.16;102018.63;5093834;28;20026;-49
2023/06/04 03:42:46;;;;;;;14.95;6.30;;;;;;;10.47;73.54;102013.94;5093287;28;20397;-48
2023/06/04 03:45:11;;;;;;;15.60;6.10;;;;;;;10.49;73.28;102014.50;5093558;28;20035;-47
2023/06/04 03:47:38;;;;;;;12.50;5.95;;;;;;;10.50;73.02;102018.94;5093616;28;20035;-48
2023/06/04 03:50:04;;;;;;;13.25;6.03;;;;;;;10.50;73.23;102012.53;5093889;28;20035;-47
2023/06/04 03:52:30;;;;;;;12.40;6.05;;;;;;;10.52;73.12;102013.09;5093686;28;20475;-48
2023/06/04 03:54:56;;;;;;;12.10;6.07;;;;;;;10.73;72.43;102020.28;5093847;28;20032;-47
2023/06/04 03:57:21;;;;;;;11.48;5.85;;;;;;;10.88;71.71;102015.81;5093789;28;20471;-47
2023/06/04 03:59:46;;;;;;;10.55;5.60;;;;;;;10.88;71.54;102018.59;5093326;28;20113;-52
2023/06/04 04:02:11;;;;;;;13.48;5.95;;;;;;;10.84;71.45;102018.34;5093495;28;20028;-51
2023/06/04 04:04:37;;;;;;;13.38;5.95;;;;;;;10.83;71.71;102015.84;5092268;28;20395;-48
2023/06/04 04:07:02;;;;;;;13.75;5.90;;;;;;;10.76;72.07;102014.22;5093520;28;20459;-47
2023/06/04 04:09:27;;;;;;;12.32;5.88;;;;;;;10.73;71.98;102019.44;5093213;28;20039;-48
2023/06/04 04:11:52;;;;;;;13.57;5.88;;;;;;;10.70;72.07;102020.84;5093539;28;20031;-50
2023/06/04 04:14:18;;;;;;;13.02;6.13;;;;;;;10.71;71.73;102028.03;5093381;28;20024;-50
2023/06/04 04:16:43;;;;;;;13.10;6.10;;;;;;;10.75;71.50;102015.31;5093117;28;20024;-47
2023/06/04 04:19:08;;;;;;;14.77;5.93;;;;;;;10.74;72.29;102021.97;5093523;28;20036;-48
2023/06/04 04:21:37;;;;;;;11.23;5.80;;;;;;;10.74;72.47;102024.72;5093236;28;20131;-48
2023/06/04 04:24:03;;;;;;;12.23;5.78;;;;;;;10.71;72.43;102022.50;5093357;28;20041;-50
2023/06/04 04:26:28;;;;;;;14.20;6.00;;;;;;;10.69;72.55;102024.72;5093222;28;20393;-49
2023/06/04 04:28:57;;;;;;;13.15;6.00;;;;;;;10.71;72.96;102014.19;5089730;28;20038;-51
2023/06/04 04:31:27;;;;;;;14.35;5.97;;;;;;;10.64;73.12;102010.91;5093211;28;20079;-48
2023/06/04 04:33:53;;;;;;;11.27;5.60;;;;;;;10.68;72.86;102020.28;5093201;28;20111;-49
2023/06/04 04:36:19;;;;;;;13.40;5.97;;;;;;;10.69;73.50;102024.72;5093112;28;20032;-47
2023/06/04 04:38:54;;;;;;;12.95;5.88;;;;;;;10.75;72.95;102025.53;5093016;28;20020;-48
2023/06/04 04:41:22;;;;;;;11.75;5.93;;;;;;;10.86;72.51;102020.84;5093077;28;20052;-48
2023/06/04 04:43:48;;;;;;;10.63;5.70;;;;;;;10.85;72.90;102022.75;5093037;28;20032;-50
2023/06/04 04:46:13;;;;;;;12.75;5.90;;;;;;;10.87;72.69;102023.31;5092909;28;20575;-50
2023/06/04 04:48:40;;;;;;;12.35;5.97;;;;;;;10.92;72.43;102026.06;5092809;28;20024;-47
2023/06/04 04:51:05;;;;;;;14.27;6.10;;;;;;;10.98;71.99;102024.13;5092962;28;20395;-48
2023/06/04 04:53:31;;;;;;;13.55;6.47;;;;;;;10.98;72.28;102028.84;5091709;28;20494;-47
2023/06/04 04:55:57;;;;;;;12.18;5.80;;;;;;;10.96;72.44;102026.34;5092757;28;20059;-49
2023/06/04 04:58:22;;;;;;;15.93;6.30;;;;;;;11.02;72.27;102032.69;5092705;28;20028;-51
2023/06/04 05:00:47;;;;;;;13.40;6.40;;;;;;;11.11;72.40;102030.19;5092531;28;20028;-47
2023/06/04 05:03:13;;;;;;;11.50;6.00;;;;;;;11.18;71.71;102031.56;5092564;28;20034;-51
2023/06/04 05:05:38;;;;;;;12.93;6.20;;;;;;;11.24;71.83;102035.97;5091219;28;20055;-49
2023/06/04 05:08:04;;;;;;;14.02;6.07;;;;;;;11.33;71.44;102030.69;5092577;28;20040;-47
2023/06/04 05:10:29;;;;;;;14.13;6.10;;;;;;;11.36;71.04;102043.97;5092637;28;20047;-48
2023/06/04 05:12:58;;;;;;;14.65;6.30;;;;;;;11.38;70.97;102029.84;5091093;28;20111;-53
2023/06/04 05:15:24;;;;;;;13.85;6.22;;;;;;;11.45;71.00;102033.13;5092630;28;20043;-49
2023/06/04 05:17:52;;;;;;;13.88;6.10;;;;;;;11.54;71.06;102031.44;5092470;28;20055;-48
2023/06/04 05:20:17;;;;;;;12.07;6.30;;;;;;;11.61;70.97;102033.91;5092531;28;20021;-48
2023/06/04 05:22:43;;;;;;;13.32;6.38;;;;;;;11.70;70.22;102032.19;5091147;28;20039;-48
2023/06/04 05:25:09;;;;;;;13.95;6.28;;;;;;;11.75;69.94;102039.66;5089474;28;20017;-47
2023/06/04 05:27:35;;;;;;;13.50;6.43;;;;;;;11.81;69.96;102029.34;5092527;28;20024;-48
2023/06/04 05:30:02;;;;;;;13.52;6.22;;;;;;;11.86;69.89;102032.13;5090924;28;20024;-47
2023/06/04 05:32:28;;;;;;;16.67;6.40;;;;;;;11.94;69.75;102028.72;5092270;28;20099;-50
2023/06/04 05:34:56;;;;;;;13.80;6.35;;;;;;;11.98;69.00;102040.09;5092204;28;20020;-48
2023/06/04 05:37:23;;;;;;;12.88;6.10;;;;;;;12.10;68.88;102034.19;5092374;28;20028;-49
2023/06/04 05:39:49;;;;;;;14.27;6.30;;;;;;;12.23;68.54;102033.56;5086142;28;20021;-49
2023/06/04 05:42:15;;;;;;;14.63;6.40;;;;;;;12.36;68.14;102037.63;5082266;28;20027;-48
2023/06/04 05:44:40;;;;;;;13.57;6.40;;;;;;;12.36;66.88;102040.41;5081937;28;20116;-52
2023/06/04 05:47:06;;;;;;;15.43;6.60;;;;;;;12.38;67.47;102040.97;5080751;28;20019;-50
2023/06/04 05:49:32;;;;;;;15.05;6.63;;;;;;;12.41;66.73;102042.31;5082661;28;20032;-50
2023/06/04 05:51:57;;;;;;;15.88;6.50;;;;;;;12.44;66.83;102041.75;5081450;28;20028;-52
2023/06/04 05:54:23;;;;;;;16.65;6.80;;;;;;;12.54;67.05;102035.28;5081047;28;20027;-50
2023/06/04 05:56:48;;;;;;;16.08;6.60;;;;;;;12.68;66.36;102035.44;5082590;28;20095;-50
2023/06/04 05:59:14;;;;;;;15.35;6.82;;;;;;;12.72;66.13;102042.06;5080819;28;20028;-49
2023/06/04 06:01:40;;;;;;;14.88;6.68;;;;;;;12.84;66.42;102033.34;5080587;28;20028;-50
2023/06/04 06:04:05;;;;;;;16.05;6.80;;;;;;;12.93;64.40;102035.22;5080920;28;20358;-52
2023/06/04 06:06:30;;;;;;;13.55;6.43;;;;;;;13.02;64.67;102037.34;5084981;28;20081;-53
2023/06/04 06:08:56;;;;;;;13.82;6.53;;;;;;;13.07;63.51;102040.06;5085164;28;20107;-53
2023/06/04 06:11:21;;;;;;;13.50;6.40;;;;;;;13.06;63.55;102041.19;5084050;28;20093;-51
2023/06/04 06:13:46;;;;;;;14.35;6.72;;;;;;;13.11;64.08;102046.69;5086741;28;20038;-49
2023/06/04 06:16:12;;;;;;;15.15;6.50;;;;;;;13.22;63.93;102042.69;5084659;28;20024;-49
2023/06/04 06:18:37;;;;;;;14.48;6.90;;;;;;;13.29;62.50;102042.31;5085825;28;20108;-50
2023/06/04 06:21:02;;;;;;;16.88;7.05;;;;;;;13.34;63.22;102045.03;5082354;28;20465;-48
2023/06/04 06:23:28;;;;;;;15.77;6.95;;;;;;;13.48;63.18;102047.13;5084399;28;20016;-49
2023/06/04 06:25:53;;;;;;;14.23;6.90;;;;;;;13.64;62.48;102047.78;5085874;28;20107;-49
2023/06/04 06:28:18;;;;;;;13.32;6.68;;;;;;;13.73;61.11;102051.53;5085426;28;20494;-49
2023/06/04 06:30:44;;;;;;;13.98;6.75;;;;;;;13.84;60.88;102053.06;5085838;28;20039;-52
2023/06/04 06:33:10;;;;;;;14.38;6.70;;;;;;;13.89;60.07;102049.38;5084192;28;20200;-52
2023/06/04 06:35:35;;;;;;;15.30;6.88;;;;;;;14.00;59.60;102058.41;5085832;28;20095;-51
2023/06/04 06:38:01;;;;;;;16.25;6.90;;;;;;;14.11;59.35;102048.78;5083480;28;20432;-52
2023/06/04 06:40:26;;;;;;;15.93;6.82;;;;;;;14.20;58.98;102052.56;5086093;28;20029;-49
2023/06/04 06:42:51;;;;;;;13.95;6.78;;;;;;;14.15;58.67;102049.84;5084003;28;20475;-52
2023/06/04 06:45:18;;;;;;;15.57;6.97;;;;;;;14.21;58.57;102056.19;5085501;28;20047;-51
2023/06/04 06:47:44;;;;;;;16.52;7.25;;;;;;;14.39;58.42;102062.03;5088541;28;20027;-50
2023/06/04 06:50:10;;;;;;;17.75;7.15;;;;;;;14.31;57.85;102055.19;5085155;28;20024;-49
2023/06/04 06:52:36;;;;;;;13.82;6.90;;;;;;;14.42;57.47;102061.41;5084514;28;20028;-51
2023/06/04 06:55:03;;;;;;;15.50;6.68;;;;;;;14.54;57.09;102064.56;5085020;28;20032;-50
2023/06/04 06:57:28;;;;;;;16.15;6.90;;;;;;;14.57;56.05;102066.75;5085866;28;20103;-52
2023/06/04 06:59:54;;;;;;;12.52;6.53;;;;;;;14.73;56.47;102067.34;5085973;28;20119;-49
2023/06/04 07:02:19;;;;;;;11.90;6.35;;;;;;;14.80;56.53;102059.41;5084913;28;20029;-48
2023/06/04 07:04:45;;;;;;;16.55;7.30;;;;;;;14.91;56.49;102062.84;5084113;28;20020;-52
2023/06/04 07:07:10;;;;;;;13.88;6.60;;;;;;;15.07;56.27;102077.31;5082867;28;20036;-51
2023/06/04 07:09:35;;;;;;;15.65;6.72;;;;;;;15.17;53.77;102067.13;5089436;28;20405;-52
2023/06/04 07:12:01;;;;;;;16.10;7.13;;;;;;;15.27;54.81;102072.50;5084669;28;20031;-50
2023/06/04 07:14:26;;;;;;;16.55;7.72;;;;;;;15.39;54.38;102072.00;5084972;28;20427;-54
2023/06/04 07:16:51;;;;;;;16.98;7.13;;;;;;;15.53;53.91;102077.56;5081931;28;20407;-54
2023/06/04 07:19:17;;;;;;;15.65;6.72;;;;;;;15.56;52.80;102080.56;5083959;28;20132;-50
2023/06/04 07:21:42;;;;;;;15.57;6.70;;;;;;;15.67;52.32;102077.56;5083987;28;20039;-52
2023/06/04 07:24:07;;;;;;;15.68;6.60;;;;;;;15.78;52.60;102067.84;5085376;28;20035;-50
2023/06/04 07:26:33;;;;;;;15.10;6.72;;;;;;;15.88;52.61;102067.66;5085231;28;20066;-51
2023/06/04 07:28:58;;;;;;;17.45;7.18;;;;;;;15.97;52.04;102069.72;5084103;28;20142;-52
2023/06/04 07:31:23;;;;;;;15.73;6.95;;;;;;;16.14;51.52;102069.06;5085939;28;20108;-50
2023/06/04 07:33:49;;;;;;;15.55;6.82;;;;;;;16.25;49.50;102066.84;5083059;28;20349;-51
2023/06/04 07:36:15;;;;;;;17.65;6.75;;;;;;;16.32;50.20;102070.84;5083270;28;20028;-51
2023/06/04 07:38:40;;;;;;;17.83;6.70;;;;;;;16.31;50.75;102073.94;5084030;28;20028;-51
2023/06/04 07:41:06;;;;;;;15.10;6.70;;;;;;;16.48;49.28;102068.50;5084846;28;20036;-48
2023/06/04 07:43:34;;;;;;;13.45;6.70;;;;;;;16.63;48.41;102064.50;5082969;28;20444;-51
2023/06/04 07:45:59;;;;;;;16.45;6.60;;;;;;;16.68;47.27;102066.34;5085956;28;20024;-50
2023/06/04 07:48:30;;;;;;;13.90;6.45;;;;;;;16.80;47.25;102062.97;5083392;28;20493;-50
2023/06/04 07:50:56;;;;;;;14.60;6.47;;;;;;;16.94;47.23;102068.53;5083130;28;20036;-49
2023/06/04 07:53:21;;;;;;;12.73;6.20;;;;;;;17.05;45.76;102066.28;5082144;28;20013;-49
2023/06/04 07:55:47;;;;;;;14.23;6.28;;;;;;;17.15;44.81;102079.97;5084712;28;20024;-52
2023/06/04 07:58:12;;;;;;;13.20;6.75;;;;;;;17.24;45.71;102080.84;5082500;28;20016;-49
2023/06/04 08:00:37;;;;;;;13.55;6.60;;;;;;;17.34;45.80;102073.31;5082411;28;20036;-52
2023/06/04 08:03:03;;;;;;;13.93;6.35;;;;;;;17.46;44.95;102074.34;5083738;28;20383;-52
2023/06/04 08:05:28;;;;;;;10.85;6.10;;;;;;;17.63;44.73;102075.53;5083506;28;20025;-50
2023/06/04 08:07:53;;;;;;;17.35;6.57;;;;;;;17.70;44.43;102070.31;5084222;28;20033;-51
2023/06/04 08:10:18;;;;;;;16.70;6.88;;;;;;;17.77;43.23;102079.06;5081757;28;20028;-49
2023/06/04 08:12:44;;;;;;;10.70;6.00;;;;;;;17.75;43.15;102070.16;5081596;28;20028;-48
2023/06/04 08:15:10;;;;;;;16.70;6.40;;;;;;;17.89;44.01;102072.81;5069884;28;20029;-50
2023/06/04 08:17:36;;;;;;;14.65;6.38;;;;;;;17.91;42.97;102073.31;5085585;28;20028;-49
2023/06/04 08:20:01;;;;;;;12.00;6.07;;;;;;;18.01;41.31;102077.00;5092185;28;20520;-49
2023/06/04 08:22:29;;;;;;;13.13;6.10;;;;;;;18.11;40.37;102068.28;5092332;28;20062;-53
2023/06/04 08:24:55;;;;;;;12.18;6.22;;;;;;;18.22;40.90;102071.56;5086380;28;20039;-52
2023/06/04 08:27:20;;;;;;;13.77;6.30;;;;;;;18.30;40.39;102072.72;5080432;28;20032;-50
2023/06/04 08:29:45;;;;;;;12.00;6.20;;;;;;;18.50;40.55;102074.03;5081445;28;20080;-48
2023/06/04 08:32:11;;;;;;;11.70;6.07;;;;;;;18.59;39.05;102071.22;5083457;28;20494;-50
2023/06/04 08:34:36;;;;;;;11.77;5.80;;;;;;;18.59;40.05;102074.84;5082911;28;20352;-51
2023/06/04 08:37:02;;;;;;;17.13;6.10;;;;;;;18.64;40.47;102069.09;5080813;28;20028;-49
2023/06/04 08:39:27;;;;;;;12.10;6.10;;;;;;;18.74;39.03;102069.91;5081418;28;20065;-51
2023/06/04 08:41:56;;;;;;;10.57;5.68;;;;;;;18.84;36.50;102073.16;5082126;28;20047;-52
2023/06/04 08:44:21;;;;;;;14.57;6.40;;;;;;;19.07;37.87;102072.97;5082541;28;20016;-50
2023/06/04 08:46:53;;;;;;;11.93;5.75;;;;;;;19.17;36.37;102080.19;5081449;28;20369;-49
2023/06/04 08:49:18;;;;;;;12.45;5.70;;;;;;;19.29;36.10;102071.06;5082964;28;20028;-51
2023/06/04 08:51:44;;;;;;;11.00;5.68;;;;;;;19.35;35.62;102091.34;5080557;28;20063;-51
2023/06/04 08:54:09;;;;;;;9.98;5.38;;;;;;;19.46;35.21;102073.78;5071818;28;20071;-56
2023/06/04 08:56:35;;;;;;;11.10;5.30;;;;;;;19.58;35.02;102077.88;5071618;28;20448;-49
2023/06/04 08:59:03;;;;;;;9.25;5.18;;;;;;;19.77;35.06;102075.44;5071805;28;20043;-51
2023/06/04 09:01:31;;;;;;;12.82;5.70;;;;;;;19.95;34.17;102089.41;5071619;28;20136;-53
2023/06/04 09:03:58;;;;;;;10.88;5.60;;;;;;;20.03;33.00;102084.91;5071454;28;20036;-52
2023/06/04 09:06:25;;;;;;;9.98;5.50;;;;;;;20.00;31.64;102085.56;5071527;28;20035;-51
2023/06/04 09:08:51;;;;;;;11.55;5.28;;;;;;;20.04;32.37;102081.75;5071555;28;20028;-51
2023/06/04 09:11:19;;;;;;;10.23;5.60;;;;;;;20.09;32.95;102077.91;5071318;28;20024;-49
2023/06/04 09:13:47;;;;;;;10.85;5.47;;;;;;;20.24;32.26;102082.09;5071289;28;20035;-48
2023/06/04 09:16:12;;;;;;;7.97;5.10;;;;;;;20.20;31.66;102083.97;5070393;28;20024;-51
2023/06/04 09:18:38;;;;;;;8.50;5.20;;;;;;;20.15;31.11;102084.16;5069549;28;20051;-52
2023/06/04 09:21:08;;;;;;;9.57;5.30;;;;;;;20.20;31.76;102084.75;5070109;28;20468;-52
2023/06/04 09:23:42;;;;;;;10.18;5.28;;;;;;;20.32;32.61;102091.63;5070472;28;20070;-49
2023/06/04 09:26:09;;;;;;;7.47;5.00;;;;;;;20.36;31.02;102084.13;5069864;28;20453;-48
2023/06/04 09:28:34;;;;;;;9.00;5.03;;;;;;;20.41;30.68;102089.56;5070316;28;20024;-51
2023/06/04 09:31:02;;;;;;;6.75;4.95;;;;;;;20.47;30.04;102093.78;5070281;28;20131;-48
2023/06/04 09:33:28;;;;;;;8.68;5.15;;;;;;;20.45;30.47;102084.06;5071256;28;20035;-50
2023/06/04 09:35:57;;;;;;;6.50;4.80;;;;;;;20.61;30.66;102087.06;5070201;28;20034;-48
2023/06/04 09:38:23;;;;;;;9.68;4.90;;;;;;;20.79;30.44;102084.94;5071360;28;20024;-53
2023/06/04 09:40:49;;;;;;;8.75;5.10;;;;;;;20.80;30.36;102084.59;5070872;28;20487;-52
2023/06/04 09:43:23;;;;;;;8.70;5.00;;;;;;;20.73;29.94;102089.94;5071000;28;20032;-51
2023/06/04 09:45:48;;;;;;;11.30;5.18;;;;;;;20.83;29.10;102077.44;5067313;28;20356;-49
2023/06/04 09:48:22;;;;;;;8.57;4.95;;;;;;;20.87;29.11;102089.66;5071159;28;20108;-49
2023/06/04 09:50:48;;;;;;;10.52;4.70;;;;;;;20.80;29.88;102073.34;5071091;28;20028;-48
2023/06/04 09:53:22;;;;;;;8.02;4.75;;;;;;;20.80;30.09;102081.78;5070883;28;20368;-51
2023/06/04 09:55:58;;;;;;;9.35;5.00;;;;;;;20.80;31.09;102080.94;5070988;28;20080;-51
2023/06/04 09:58:28;;;;;;;6.60;4.80;;;;;;;20.99;30.09;102072.00;5070697;28;20028;-49
2023/06/04 10:00:58;;;;;;;9.98;4.80;;;;;;;21.09;29.70;102068.72;5070564;28;20028;-51
2023/06/04 10:03:32;;;;;;;9.35;4.97;;;;;;;21.07;29.33;102078.66;5070561;28;20036;-52
2023/06/04 10:05:59;;;;;;;8.88;4.97;;;;;;;21.20;29.54;102077.53;5070934;28;20464;-51
2023/06/04 10:08:26;;;;;;;7.53;5.10;;;;;;;21.16;28.46;102076.59;5070542;28;20076;-51
2023/06/04 10:10:54;;;;;;;11.40;5.38;;;;;;;21.22;28.41;102068.72;5069134;28;20024;-53
2023/06/04 10:13:20;;;;;;;8.43;5.15;;;;;;;21.43;29.06;102065.84;5068614;28;20033;-50
2023/06/04 10:15:47;;;;;;;11.98;5.28;;;;;;;21.55;28.45;102073.44;5070493;28;20079;-51
2023/06/04 10:18:15;;;;;;;9.82;5.13;;;;;;;21.69;29.61;102082.38;5070524;28;20053;-53
2023/06/04 10:20:41;;;;;;;8.38;4.80;;;;;;;21.68;28.97;102074.28;5070203;28;20051;-53
2023/06/04 10:23:07;;;;;;;8.07;4.70;;;;;;;21.78;28.90;102073.81;5070198;28;20484;-51
2023/06/04 10:25:35;;;;;;;9.93;5.20;;;;;;;21.77;28.15;102078.63;5068812;28;20033;-50
2023/06/04 10:28:01;;;;;;;6.93;4.70;;;;;;;21.68;27.60;102071.47;5070364;28;20033;-52
2023/06/04 10:30:27;;;;;;;7.03;4.70;;;;;;;21.69;28.44;102084.38;5070208;28;20024;-50
2023/06/04 10:32:53;;;;;;;11.20;5.43;;;;;;;21.72;28.69;102070.41;5070245;28;20515;-48
2023/06/04 10:35:30;;;;;;;8.52;5.00;;;;;;;21.81;28.52;102073.13;5069141;28;20070;-48
2023/06/04 10:38:14;;;;;;;9.45;5.00;;;;;;;21.92;29.62;102073.44;5070489;28;20461;-49
2023/06/04 10:40:39;;;;;;;;;;;;;;;22.12;30.53;102063.19;5090974;28;20035;-50
2023/06/04 10:43:13;;;;;;;8.55;5.03;;;;;;;22.32;29.61;102069.81;5090408;28;19920;-47
2023/06/04 10:45:39;;;;;;;9.75;5.20;;;;;;;22.33;29.09;102070.63;5070540;28;20041;-51
2023/06/04 10:48:10;;;;;;;10.60;5.30;;;;;;;22.23;29.49;102069.97;5071456;28;20379;-49
2023/06/04 10:50:48;;;;;;;10.15;5.40;;;;;;;22.39;29.67;102067.22;5071547;28;20399;-54
2023/06/04 10:53:13;;;;;;;8.55;5.22;;;;;;;22.46;29.36;102068.63;5074366;28;20080;-50
2023/06/04 10:55:46;;;;;;;9.05;4.88;;;;;;;22.63;29.41;102067.50;5074882;28;20393;-51
2023/06/04 10:58:12;;;;;;;10.18;5.40;;;;;;;22.78;29.14;102063.06;5074992;28;20488;-52
2023/06/04 11:00:42;;;;;;;8.60;5.10;;;;;;;22.73;28.60;102069.78;5074516;28;20020;-52
2023/06/04 11:03:11;;;;;;;9.82;4.93;;;;;;;22.73;29.35;102081.06;5075000;28;20040;-51
2023/06/04 11:05:42;;;;;;;8.65;5.30;;;;;;;22.56;28.88;102076.56;5074868;28;20025;-50
2023/06/04 11:08:09;;;;;;;10.45;5.10;;;;;;;22.26;29.00;102082.50;5074982;28;20083;-52
2023/06/04 11:10:37;;;;;;;8.93;5.15;;;;;;;22.01;29.29;102076.94;5074607;28;20588;-52
2023/06/04 11:13:03;;;;;;;9.20;5.07;;;;;;;22.12;30.28;102071.63;5074593;28;20500;-48
2023/06/04 11:15:39;;;;;;;11.30;5.30;;;;;;;22.36;30.23;102064.28;5074691;28;20174;-50
2023/06/04 11:18:04;;;;;;;8.65;4.90;;;;;;;22.54;29.87;102054.38;5074688;28;20048;-48